createdAt,value
2022-12-08T00:00:00.280Z,73.14
2022-12-08T00:02:31.362Z,73.36
2022-12-08T00:05:19.870Z,73.38
2022-12-08T00:08:10.398Z,73.15
2022-12-08T00:10:51.048Z,73.14
2022-12-08T00:13:21.996Z,73.07
2022-12-08T00:15:53.043Z,73.11
2022-12-08T00:18:23.885Z,73.15
2022-12-08T00:20:59.509Z,73.20
2022-12-08T00:23:30.322Z,73.27
2022-12-08T00:26:05.407Z,73.32
2022-12-08T00:28:36.558Z,73.22
2022-12-08T00:31:12.167Z,73.30
2022-12-08T00:33:43.047Z,73.11
2022-12-08T00:36:15.971Z,73.09
2022-12-08T00:38:48.433Z,72.88
2022-12-08T00:41:41.050Z,72.84
2022-12-08T00:44:14.335Z,72.64
2022-12-08T00:46:45.991Z,72.67
2022-12-08T00:49:17.655Z,72.66
2022-12-08T00:51:48.607Z,72.58
2022-12-08T00:54:20.067Z,72.56
2022-12-08T00:56:50.909Z,72.40
2022-12-08T00:59:22.301Z,72.42
2022-12-08T01:01:53.191Z,72.42
2022-12-08T01:04:24.024Z,72.57
2022-12-08T01:06:54.963Z,72.53
2022-12-08T01:09:26.011Z,72.50
2022-12-08T01:11:57.186Z,72.19
2022-12-08T01:14:28.117Z,72.07
2022-12-08T01:16:59.193Z,72.21
2022-12-08T01:19:31.022Z,72.16
2022-12-08T01:22:01.935Z,72.16
2022-12-08T01:24:32.957Z,72.35
2022-12-08T01:27:03.803Z,72.46
2022-12-08T01:29:34.906Z,72.41
2022-12-08T01:32:06.187Z,72.13
2022-12-08T01:34:37.304Z,72.26
2022-12-08T01:37:10.746Z,72.23
2022-12-08T01:39:41.768Z,72.04
2022-12-08T01:42:24.379Z,71.84
2022-12-08T01:45:01.367Z,71.95
2022-12-08T01:47:39.201Z,71.99
2022-12-08T01:50:14.438Z,72.03
2022-12-08T01:52:50.678Z,71.90
2022-12-08T01:55:27.104Z,71.82
2022-12-08T01:58:01.715Z,71.66
2022-12-08T02:00:32.623Z,71.46
2022-12-08T02:03:05.849Z,71.58
2022-12-08T02:05:40.068Z,71.51
2022-12-08T02:08:14.046Z,71.67
2022-12-08T02:10:47.780Z,71.69
2022-12-08T02:13:21.570Z,71.72
2022-12-08T02:16:05.132Z,71.58
2022-12-08T02:19:02.100Z,71.85
2022-12-08T02:21:49.354Z,71.76
2022-12-08T02:24:31.835Z,71.48
2022-12-08T02:27:29.658Z,71.61
2022-12-08T02:30:14.305Z,71.50
2022-12-08T02:33:20.908Z,71.40
2022-12-08T02:35:59.620Z,71.47
2022-12-08T02:38:47.254Z,71.60
2022-12-08T02:41:30.486Z,71.67
2022-12-08T02:44:07.561Z,71.56
2022-12-08T02:46:42.777Z,71.66
2022-12-08T02:49:14.780Z,71.56
2022-12-08T02:51:45.644Z,71.48
2022-12-08T02:54:17.248Z,71.53
2022-12-08T02:57:01.514Z,71.61
2022-12-08T02:59:45.970Z,71.59
2022-12-08T03:02:37.560Z,71.47
2022-12-08T03:05:14.973Z,71.47
2022-12-08T03:07:52.235Z,71.54
2022-12-08T03:10:30.767Z,71.47
2022-12-08T03:13:07.066Z,71.58
2022-12-08T03:15:39.610Z,71.73
2022-12-08T03:18:16.760Z,71.52
2022-12-08T03:20:49.101Z,71.51
2022-12-08T03:23:21.477Z,71.47
2022-12-08T03:25:57.851Z,71.51
2022-12-08T03:28:28.701Z,71.39
2022-12-08T03:31:06.345Z,71.44
2022-12-08T03:33:41.309Z,71.50
2022-12-08T03:36:14.831Z,71.71
2022-12-08T03:38:48.022Z,71.51
2022-12-08T03:41:19.780Z,71.39
2022-12-08T03:43:51.842Z,71.71
2022-12-08T03:48:55.532Z,71.54
2022-12-08T03:51:28.237Z,71.55
2022-12-08T03:53:59.175Z,71.76
2022-12-08T03:56:32.408Z,71.72
2022-12-08T03:59:03.620Z,71.81
2022-12-08T04:01:34.759Z,71.56
2022-12-08T04:04:05.862Z,71.71
2022-12-08T04:06:36.850Z,71.79
2022-12-08T04:09:07.790Z,71.63
2022-12-08T04:11:38.652Z,71.77
2022-12-08T04:14:09.571Z,71.67
2022-12-08T04:16:40.535Z,71.95
2022-12-08T04:19:11.394Z,71.84
2022-12-08T04:21:42.188Z,71.88
2022-12-08T04:24:12.986Z,71.60
2022-12-08T04:26:43.860Z,71.81
2022-12-08T04:29:14.715Z,71.75
2022-12-08T04:31:45.607Z,71.76
2022-12-08T04:34:16.504Z,71.77
2022-12-08T04:36:47.325Z,71.55
2022-12-08T04:39:18.266Z,71.61
2022-12-08T04:41:49.017Z,71.57
2022-12-08T04:44:20.072Z,71.48
2022-12-08T04:46:50.848Z,71.36
2022-12-08T04:49:21.738Z,71.41
2022-12-08T04:51:52.566Z,71.42
2022-12-08T04:54:23.344Z,71.18
2022-12-08T04:56:54.224Z,71.07
2022-12-08T04:59:25.029Z,71.10
2022-12-08T05:01:56.209Z,71.04
2022-12-08T05:04:27.455Z,71.09
2022-12-08T05:06:58.735Z,71.13
2022-12-08T05:09:29.947Z,71.33
2022-12-08T05:12:00.749Z,71.38
2022-12-08T05:14:31.731Z,71.36
2022-12-08T05:17:07.777Z,71.30
2022-12-08T05:19:40.257Z,71.26
2022-12-08T05:22:11.408Z,71.25
2022-12-08T05:24:47.449Z,71.41
2022-12-08T05:27:18.892Z,71.26
2022-12-08T05:29:50.377Z,71.29
2022-12-08T05:32:21.227Z,71.40
2022-12-08T05:34:52.091Z,71.09
2022-12-08T05:37:22.880Z,71.33
2022-12-08T05:39:54.177Z,71.26
2022-12-08T05:42:25.337Z,71.07
2022-12-08T05:44:56.325Z,71.12
2022-12-08T05:47:28.879Z,71.18
2022-12-08T05:50:02.872Z,71.08
2022-12-08T05:52:34.468Z,71.11
2022-12-08T05:55:06.234Z,71.47
2022-12-08T05:57:37.085Z,71.04
2022-12-08T06:00:10.650Z,71.15
2022-12-08T06:02:44.590Z,71.19
2022-12-08T06:05:15.849Z,71.17
2022-12-08T06:07:46.815Z,71.24
2022-12-08T06:10:17.736Z,71.21
2022-12-08T06:12:48.612Z,71.17
2022-12-08T06:15:19.910Z,71.39
2022-12-08T06:17:51.046Z,71.62
2022-12-08T06:20:21.857Z,71.44
2022-12-08T06:22:52.699Z,71.40
2022-12-08T06:25:23.866Z,71.55
2022-12-08T06:27:54.760Z,71.50
2022-12-08T06:30:26.260Z,71.73
2022-12-08T06:32:57.097Z,71.63
2022-12-08T06:35:28.035Z,71.75
2022-12-08T06:37:58.861Z,71.61
2022-12-08T06:40:29.802Z,71.79
2022-12-08T06:43:01.213Z,71.58
2022-12-08T06:45:32.056Z,71.49
2022-12-08T06:48:04.256Z,71.40
2022-12-08T06:50:36.026Z,71.45
2022-12-08T06:53:06.873Z,71.39
2022-12-08T06:58:28.614Z,71.35
2022-12-08T07:00:59.513Z,71.24
2022-12-08T07:03:30.417Z,71.22
2022-12-08T07:06:04.200Z,71.32
2022-12-08T07:08:36.175Z,71.12
2022-12-08T07:11:15.317Z,71.27
2022-12-08T07:13:51.423Z,71.24
2022-12-08T07:16:22.587Z,71.16
2022-12-08T07:18:53.565Z,71.15
2022-12-08T07:21:25.999Z,71.24
2022-12-08T07:24:00.747Z,71.04
2022-12-08T07:26:31.575Z,71.05
2022-12-08T07:29:06.226Z,70.89
2022-12-08T07:31:38.145Z,70.86
2022-12-08T07:34:09.160Z,70.57
2022-12-08T07:36:40.345Z,70.64
2022-12-08T07:39:11.780Z,71.28
2022-12-08T07:41:42.796Z,72.30
2022-12-08T07:44:13.710Z,72.33
2022-12-08T07:46:44.644Z,72.73
2022-12-08T07:49:15.576Z,73.09
2022-12-08T07:51:46.418Z,73.20
2022-12-08T07:54:17.358Z,72.49
2022-12-08T07:56:48.227Z,71.53
2022-12-08T07:59:19.358Z,70.25
2022-12-08T08:02:21.006Z,69.83
2022-12-08T08:04:46.054Z,68.68
2022-12-08T08:07:20.894Z,66.60
2022-12-08T08:09:51.800Z,65.13
2022-12-08T08:12:32.361Z,63.36
2022-12-08T08:15:05.081Z,61.45
2022-12-08T08:17:37.069Z,60.02
2022-12-08T08:20:11.246Z,58.17
2022-12-08T08:22:42.113Z,56.52
2022-12-08T08:25:14.569Z,55.36
2022-12-08T08:27:50.972Z,54.39
2022-12-08T08:30:22.731Z,53.92
2022-12-08T08:32:53.728Z,53.27
2022-12-08T08:35:25.182Z,53.05
2022-12-08T08:37:56.643Z,52.44
2022-12-08T08:40:27.568Z,51.55
2022-12-08T08:42:58.413Z,51.06
2022-12-08T08:45:29.323Z,49.82
2022-12-08T08:48:00.178Z,49.62
2022-12-08T08:50:35.963Z,48.22
2022-12-08T08:53:08.465Z,47.27
2022-12-08T08:55:41.398Z,47.09
2022-12-08T08:58:12.260Z,46.76
2022-12-08T09:00:43.309Z,46.77
2022-12-08T09:03:14.488Z,46.41
2022-12-08T09:05:45.412Z,45.97
2022-12-08T09:08:16.469Z,44.55
2022-12-08T09:10:47.421Z,43.30
2022-12-08T09:13:18.326Z,42.82
2022-12-08T09:15:49.404Z,42.87
2022-12-08T09:18:20.553Z,43.58
2022-12-08T09:20:51.903Z,43.28
2022-12-08T09:23:22.730Z,43.24
2022-12-08T09:25:56.594Z,43.72
2022-12-08T09:28:27.367Z,44.43
2022-12-08T09:30:59.485Z,44.88
2022-12-08T09:33:31.431Z,45.27
2022-12-08T09:36:06.465Z,45.47
2022-12-08T09:38:38.881Z,45.60
2022-12-08T09:41:21.902Z,45.92
2022-12-08T09:44:08.341Z,46.20
2022-12-08T09:46:40.811Z,46.64
2022-12-08T09:49:19.954Z,47.18
2022-12-08T09:51:50.903Z,47.45
2022-12-08T09:54:26.270Z,47.71
2022-12-08T09:57:02.306Z,48.31
2022-12-08T09:59:35.745Z,48.79
2022-12-08T10:02:20.306Z,49.29
2022-12-08T10:04:51.595Z,49.73
2022-12-08T10:07:30.853Z,50.02
2022-12-08T10:10:08.851Z,50.45
2022-12-08T10:12:47.791Z,51.16
2022-12-08T10:15:37.776Z,51.19
2022-12-08T10:18:18.255Z,51.25
2022-12-08T10:20:51.102Z,51.93
2022-12-08T10:23:36.000Z,52.51
2022-12-08T10:26:09.103Z,52.73
2022-12-08T10:28:44.772Z,53.04
2022-12-08T10:31:22.189Z,53.27
2022-12-08T10:33:59.293Z,53.56
2022-12-08T10:36:48.017Z,53.73
2022-12-08T10:39:39.635Z,54.12
2022-12-08T10:42:22.648Z,54.48
2022-12-08T10:45:03.890Z,54.89
2022-12-08T10:47:42.509Z,55.20
2022-12-08T10:50:24.662Z,55.22
2022-12-08T10:53:04.579Z,55.75
2022-12-08T10:55:47.042Z,56.29
2022-12-08T10:58:42.334Z,56.70
2022-12-08T11:01:18.550Z,57.14
2022-12-08T11:03:52.799Z,57.17
2022-12-08T11:06:26.552Z,57.47
2022-12-08T11:09:01.092Z,57.74
2022-12-08T11:11:46.015Z,57.76
2022-12-08T11:14:23.857Z,57.82
2022-12-08T11:16:57.227Z,58.25
2022-12-08T11:19:29.091Z,58.57
2022-12-08T11:22:00.190Z,59.33
2022-12-08T11:24:37.843Z,59.78
2022-12-08T11:27:09.857Z,59.34
2022-12-08T11:29:41.105Z,59.65
2022-12-08T11:32:15.462Z,59.99
2022-12-08T11:34:51.995Z,60.18
2022-12-08T11:37:34.682Z,60.29
2022-12-08T11:40:16.445Z,60.66
2022-12-08T11:42:55.989Z,60.92
2022-12-08T11:45:31.543Z,60.65
2022-12-08T11:48:12.051Z,61.37
2022-12-08T11:50:48.916Z,61.30
2022-12-08T11:53:27.901Z,61.37
2022-12-08T11:56:03.376Z,61.38
2022-12-08T11:58:43.318Z,61.71
2022-12-08T12:01:21.167Z,61.78
2022-12-08T12:04:00.805Z,62.38
2022-12-08T12:06:55.091Z,62.55
2022-12-08T12:09:39.839Z,62.56
2022-12-08T12:12:23.089Z,62.87
2022-12-08T12:15:24.361Z,62.74
2022-12-08T12:18:00.909Z,62.98
2022-12-08T12:20:36.254Z,63.59
2022-12-08T12:23:15.825Z,63.69
2022-12-08T12:25:56.857Z,63.63
2022-12-08T12:28:32.036Z,63.57
2022-12-08T12:31:08.048Z,63.71
2022-12-08T12:33:39.446Z,63.87
2022-12-08T12:36:13.006Z,63.94
2022-12-08T12:39:06.359Z,63.92
2022-12-08T12:41:48.425Z,63.92
2022-12-08T12:44:38.466Z,64.12
2022-12-08T12:47:14.809Z,64.23
2022-12-08T12:50:08.944Z,63.98
2022-12-08T12:52:51.559Z,64.25
2022-12-08T12:55:55.949Z,64.24
2022-12-08T12:58:43.094Z,64.13
2022-12-08T13:01:50.800Z,64.35
2022-12-08T13:04:36.380Z,64.57
2022-12-08T13:07:09.275Z,64.87
2022-12-08T13:09:41.709Z,64.86
2022-12-08T13:12:24.525Z,65.22
2022-12-08T13:15:00.506Z,65.09
2022-12-08T13:17:36.090Z,64.91
2022-12-08T13:20:21.828Z,65.47
2022-12-08T13:23:12.179Z,65.41
2022-12-08T13:26:12.223Z,65.54
2022-12-08T13:29:19.427Z,65.84
2022-12-08T13:31:52.869Z,65.87
2022-12-08T13:34:31.553Z,65.85
2022-12-08T13:37:23.403Z,65.98
2022-12-08T13:40:00.324Z,66.19
2022-12-08T13:42:42.176Z,66.00
2022-12-08T13:45:48.614Z,66.07
2022-12-08T13:48:35.262Z,66.17
2022-12-08T13:53:28.427Z,66.49
2022-12-08T13:57:10.552Z,66.64
2022-12-08T13:59:46.712Z,66.71
2022-12-08T14:02:27.319Z,66.66
2022-12-08T14:07:53.490Z,67.21
2022-12-08T14:10:28.362Z,66.85
2022-12-08T14:13:02.422Z,67.25
2022-12-08T14:15:38.294Z,67.39
2022-12-08T14:18:25.777Z,67.04
2022-12-08T14:21:21.145Z,67.22
2022-12-08T14:23:52.592Z,67.23
2022-12-08T14:26:23.561Z,67.55
2022-12-08T14:28:54.839Z,67.43
2022-12-08T14:31:28.898Z,67.74
2022-12-08T14:33:59.867Z,67.86
2022-12-08T14:36:33.466Z,67.94
2022-12-08T14:39:05.311Z,68.09
2022-12-08T14:41:36.218Z,68.22
2022-12-08T14:44:21.409Z,68.36
2022-12-08T14:49:49.158Z,68.47
2022-12-08T14:52:20.070Z,68.26
2022-12-08T14:54:57.288Z,68.43
2022-12-08T14:57:37.638Z,68.45
2022-12-08T15:00:22.010Z,68.37
2022-12-08T15:02:52.954Z,68.40
2022-12-08T15:05:30.711Z,68.62
2022-12-08T15:08:05.731Z,68.30
2022-12-08T15:10:39.988Z,68.46
2022-12-08T15:13:23.975Z,68.33
2022-12-08T15:15:56.824Z,68.63
2022-12-08T15:18:37.290Z,68.54
2022-12-08T15:21:12.899Z,68.62
2022-12-08T15:23:46.790Z,68.56
2022-12-08T15:26:22.328Z,68.79
2022-12-08T15:28:53.862Z,68.63
2022-12-08T15:31:24.767Z,68.64
2022-12-08T15:33:55.829Z,68.83
2022-12-08T15:36:26.718Z,68.56
2022-12-08T15:38:57.814Z,68.66
2022-12-08T15:41:28.650Z,69.09
2022-12-08T15:43:59.505Z,68.86
2022-12-08T15:46:30.522Z,69.06
2022-12-08T15:49:01.570Z,69.06
2022-12-08T15:51:36.527Z,69.01
2022-12-08T15:54:07.760Z,68.87
2022-12-08T15:56:45.464Z,69.24
2022-12-08T15:59:23.915Z,69.33
2022-12-08T16:01:55.262Z,68.85
2022-12-08T16:07:24.435Z,69.25
2022-12-08T16:09:56.271Z,68.67
2022-12-08T16:13:48.285Z,68.88
2022-12-08T16:15:53.637Z,68.57
2022-12-08T16:18:34.487Z,69.06
2022-12-08T16:21:16.901Z,69.04
2022-12-08T16:23:57.230Z,68.85
2022-12-08T16:27:28.453Z,68.78
2022-12-08T16:29:22.660Z,69.09
2022-12-08T16:31:53.550Z,69.40
2022-12-08T16:34:24.650Z,69.08
2022-12-08T16:36:55.589Z,68.92
2022-12-08T16:39:26.779Z,69.13
2022-12-08T16:42:15.353Z,69.01
2022-12-08T16:44:46.549Z,68.87
2022-12-08T16:47:17.636Z,68.81
2022-12-08T16:49:48.731Z,68.93
2022-12-08T16:52:19.888Z,68.89
2022-12-08T16:54:50.816Z,69.04
2022-12-08T16:57:21.977Z,68.95
2022-12-08T16:59:53.186Z,69.06
2022-12-08T17:02:24.746Z,69.04
2022-12-08T17:05:00.347Z,68.99
2022-12-08T17:07:32.110Z,69.02
2022-12-08T17:10:06.388Z,69.11
2022-12-08T17:12:38.113Z,69.16
2022-12-08T17:15:12.697Z,69.06
2022-12-08T17:17:43.811Z,69.27
2022-12-08T17:20:17.927Z,69.13
2022-12-08T17:22:49.939Z,69.12
2022-12-08T17:25:21.215Z,69.42
2022-12-08T17:27:52.319Z,69.16
2022-12-08T17:30:23.643Z,68.99
2022-12-08T17:32:54.561Z,69.05
2022-12-08T17:35:25.985Z,69.07
2022-12-08T17:37:57.103Z,69.12
2022-12-08T17:40:28.515Z,68.89
2022-12-08T17:42:59.937Z,69.23
2022-12-08T17:45:31.060Z,69.15
2022-12-08T17:48:02.046Z,69.28
2022-12-08T17:50:32.978Z,69.16
2022-12-08T17:53:03.814Z,69.34
2022-12-08T17:55:34.925Z,69.04
2022-12-08T17:58:06.683Z,69.07
2022-12-08T18:00:38.171Z,69.17
2022-12-08T18:03:08.974Z,69.21
2022-12-08T18:05:40.072Z,69.25
2022-12-08T18:08:11.882Z,69.42
2022-12-08T18:10:43.064Z,69.31
2022-12-08T18:13:13.953Z,69.16
2022-12-08T18:15:46.994Z,69.25
2022-12-08T18:18:20.295Z,69.33
2022-12-08T18:20:51.418Z,69.29
2022-12-08T18:23:22.233Z,68.96
2022-12-08T18:25:54.618Z,68.95
2022-12-08T18:28:26.896Z,68.83
2022-12-08T18:30:57.992Z,68.68
2022-12-08T18:33:29.289Z,68.67
2022-12-08T18:36:03.087Z,68.46
2022-12-08T18:38:34.823Z,68.77
2022-12-08T18:41:10.489Z,68.71
2022-12-08T18:43:41.869Z,68.70
2022-12-08T18:46:15.024Z,68.77
2022-12-08T18:48:49.273Z,68.60
2022-12-08T18:51:23.285Z,68.63
2022-12-08T18:53:54.566Z,68.41
2022-12-08T18:56:27.801Z,68.47
2022-12-08T18:59:03.585Z,68.48
2022-12-08T19:01:36.425Z,68.43
2022-12-08T19:04:27.853Z,68.52
2022-12-08T19:07:01.648Z,68.32
2022-12-08T19:09:32.689Z,68.34
2022-12-08T19:12:04.087Z,68.58
2022-12-08T19:14:35.610Z,68.44
2022-12-08T19:17:06.874Z,68.74
2022-12-08T19:19:38.367Z,68.23
2022-12-08T19:22:09.697Z,68.45
2022-12-08T19:24:40.634Z,68.31
2022-12-08T19:27:11.620Z,68.33
2022-12-08T19:29:42.628Z,68.33
2022-12-08T19:32:13.613Z,68.41
2022-12-08T19:34:44.454Z,68.60
2022-12-08T19:37:17.485Z,68.43
2022-12-08T19:40:06.469Z,68.52
2022-12-08T19:42:55.473Z,68.43
2022-12-08T19:45:27.748Z,68.47
2022-12-08T19:47:58.717Z,68.56
2022-12-08T19:50:39.217Z,68.50
2022-12-08T19:53:12.127Z,68.39
2022-12-08T19:55:43.747Z,68.87
2022-12-08T19:58:14.985Z,68.69
2022-12-08T20:00:46.575Z,69.04
2022-12-08T20:03:19.888Z,69.07
2022-12-08T20:05:53.961Z,69.01
2022-12-08T20:08:25.029Z,69.15
2022-12-08T20:10:59.201Z,69.29
2022-12-08T20:13:44.726Z,69.30
2022-12-08T20:16:17.136Z,69.16
2022-12-08T20:18:48.831Z,69.38
2022-12-08T20:21:20.491Z,69.32
2022-12-08T20:23:51.483Z,69.69
2022-12-08T20:26:24.900Z,69.58
2022-12-08T20:28:55.993Z,69.61
2022-12-08T20:31:29.130Z,69.70
2022-12-08T20:34:00.140Z,69.83
2022-12-08T20:36:31.569Z,69.83
2022-12-08T20:39:02.870Z,69.95
2022-12-08T20:41:38.813Z,70.07
2022-12-08T20:44:10.845Z,70.22
2022-12-08T20:46:47.753Z,70.16
2022-12-08T20:49:20.186Z,70.13
2022-12-08T20:51:51.329Z,70.27
2022-12-08T20:54:22.582Z,70.22
2022-12-08T20:56:53.654Z,70.23
2022-12-08T20:59:26.377Z,70.36
2022-12-08T21:01:57.630Z,70.59
2022-12-08T21:04:29.427Z,70.67
2022-12-08T21:07:00.950Z,70.74
2022-12-08T21:09:32.202Z,70.61
2022-12-08T21:12:03.779Z,70.68
2022-12-08T21:14:36.250Z,70.95
2022-12-08T21:17:07.722Z,70.77
2022-12-08T21:19:39.379Z,70.81
2022-12-08T21:22:10.837Z,70.77
2022-12-08T21:24:42.378Z,70.83
2022-12-08T21:27:14.064Z,70.79
2022-12-08T21:29:45.541Z,70.72
2022-12-08T21:32:17.527Z,70.98
2022-12-08T21:34:48.881Z,70.66
2022-12-08T21:37:19.877Z,70.67
2022-12-08T21:39:51.852Z,70.84
2022-12-08T21:42:40.914Z,70.76
2022-12-08T21:45:14.278Z,70.91
2022-12-08T21:47:46.266Z,71.05
2022-12-08T21:50:18.511Z,71.10
2022-12-08T21:52:51.087Z,70.86
2022-12-08T21:55:23.831Z,70.77
2022-12-08T21:57:57.219Z,70.68
2022-12-08T22:00:29.850Z,70.81
2022-12-08T22:03:01.602Z,70.89
2022-12-08T22:05:33.467Z,70.92
2022-12-08T22:08:05.234Z,70.90
2022-12-08T22:10:36.919Z,70.89
2022-12-08T22:13:08.313Z,70.81
2022-12-08T22:15:39.624Z,70.66
2022-12-08T22:18:11.851Z,70.70
2022-12-08T22:20:44.565Z,70.67
2022-12-08T22:23:15.720Z,70.59
2022-12-08T22:25:47.624Z,70.54
2022-12-08T22:28:18.936Z,70.69
2022-12-08T22:30:50.234Z,70.63
2022-12-08T22:33:21.787Z,70.75
2022-12-08T22:36:04.711Z,70.63
2022-12-08T22:38:37.843Z,70.75
2022-12-08T22:41:09.545Z,70.84
2022-12-08T22:43:41.499Z,71.00
2022-12-08T22:46:15.551Z,70.99
2022-12-08T22:48:46.973Z,70.84
2022-12-08T22:51:19.340Z,70.97
2022-12-08T22:53:51.008Z,70.78
2022-12-08T22:56:22.151Z,70.75
2022-12-08T22:58:53.286Z,70.75
2022-12-08T23:01:27.819Z,70.96
2022-12-08T23:03:59.755Z,70.99
2022-12-08T23:06:32.761Z,70.87
2022-12-08T23:09:04.310Z,71.09
2022-12-08T23:11:36.252Z,71.22
2022-12-08T23:14:07.468Z,71.22
2022-12-08T23:16:38.953Z,71.05
2022-12-08T23:19:10.495Z,71.06
2022-12-08T23:21:41.717Z,70.70
2022-12-08T23:24:12.934Z,70.74
2022-12-08T23:26:44.039Z,70.74
2022-12-08T23:32:04.773Z,70.83
2022-12-08T23:34:36.360Z,70.76
2022-12-08T23:37:07.721Z,70.83
2022-12-08T23:39:39.475Z,70.77
2022-12-08T23:42:11.108Z,70.91
2022-12-08T23:44:42.900Z,70.93
2022-12-08T23:47:14.349Z,71.03
2022-12-08T23:49:45.717Z,71.04
2022-12-08T23:52:17.400Z,71.06
2022-12-08T23:54:50.739Z,71.24
2022-12-08T23:57:22.182Z,71.39
2022-12-08T23:59:53.150Z,71.36
